createdAt,value
2023-05-09T00:02:48.352Z,0.93
2023-05-09T00:08:20.354Z,1.10
2023-05-09T00:13:48.413Z,0.90
2023-05-09T00:19:13.391Z,1.00
2023-05-09T00:24:38.389Z,1.10
2023-05-09T00:30:05.400Z,1.00
2023-05-09T00:35:30.334Z,0.90
2023-05-09T00:40:54.369Z,1.00
2023-05-09T00:46:22.441Z,1.00
2023-05-09T00:51:47.398Z,1.00
2023-05-09T00:57:12.393Z,1.02
2023-05-09T01:02:39.445Z,0.90
2023-05-09T01:08:12.358Z,0.90
2023-05-09T01:13:43.405Z,1.00
2023-05-09T01:19:27.388Z,1.10
2023-05-09T01:25:17.398Z,0.90
2023-05-09T01:30:47.398Z,0.88
2023-05-09T01:36:17.424Z,1.10
2023-05-09T01:41:47.432Z,0.90
2023-05-09T01:47:15.393Z,1.10
2023-05-09T01:52:42.413Z,1.20
2023-05-09T01:58:07.390Z,1.00
2023-05-09T02:03:35.405Z,1.02
2023-05-09T02:09:07.448Z,0.93
2023-05-09T02:14:32.438Z,1.00
2023-05-09T02:19:59.451Z,1.17
2023-05-09T02:25:26.419Z,1.00
2023-05-09T02:30:56.411Z,1.10
2023-05-09T02:36:24.424Z,1.17
2023-05-09T02:41:49.423Z,1.10
2023-05-09T02:47:15.432Z,1.10
2023-05-09T02:52:44.460Z,1.02
2023-05-09T02:58:13.562Z,1.10
2023-05-09T03:03:40.484Z,1.20
2023-05-09T03:09:08.462Z,1.10
2023-05-09T03:14:33.560Z,1.20
2023-05-09T03:19:58.453Z,1.15
2023-05-09T03:25:25.427Z,1.30
2023-05-09T03:30:50.487Z,1.35
2023-05-09T03:36:17.476Z,1.30
2023-05-09T03:41:45.631Z,1.10
2023-05-09T03:47:09.453Z,1.23
2023-05-09T03:52:34.472Z,1.27
2023-05-09T03:58:01.458Z,1.30
2023-05-09T04:03:29.526Z,1.40
2023-05-09T04:09:00.467Z,1.30
2023-05-09T04:14:28.854Z,1.40
2023-05-09T04:19:53.486Z,1.23
2023-05-09T04:25:19.635Z,1.50
2023-05-09T04:30:47.706Z,1.40
2023-05-09T04:36:12.549Z,1.50
2023-05-09T04:41:39.471Z,1.40
2023-05-09T04:47:11.182Z,1.35
2023-05-09T04:52:36.958Z,1.27
2023-05-09T04:58:03.496Z,1.27
2023-05-09T05:03:32.774Z,1.35
2023-05-09T05:09:06.497Z,1.30
2023-05-09T05:14:36.550Z,1.33
2023-05-09T05:20:09.711Z,1.20
2023-05-09T05:25:37.523Z,1.35
2023-05-09T05:31:06.571Z,1.50
2023-05-09T05:36:35.066Z,1.20
2023-05-09T05:41:59.570Z,1.27
2023-05-09T05:47:25.557Z,1.38
2023-05-09T05:52:55.581Z,1.10
2023-05-09T05:58:23.199Z,1.23
2023-05-09T06:03:50.627Z,1.30
2023-05-09T06:09:29.768Z,1.10
2023-05-09T06:14:56.562Z,1.20
2023-05-09T06:20:25.546Z,1.20
2023-05-09T06:25:55.524Z,1.20
2023-05-09T06:31:23.477Z,1.10
2023-05-09T06:36:49.744Z,1.00
2023-05-09T06:42:17.584Z,1.05
2023-05-09T06:47:42.593Z,1.00
2023-05-09T06:53:07.542Z,1.10
2023-05-09T06:58:35.530Z,1.15
2023-05-09T07:04:00.692Z,1.05
2023-05-09T07:09:28.046Z,1.17
2023-05-09T07:14:54.583Z,1.30
2023-05-09T07:20:20.593Z,1.15
2023-05-09T07:25:44.621Z,1.15
2023-05-09T07:31:12.693Z,1.10
2023-05-09T07:42:02.598Z,1.30
2023-05-09T07:47:30.644Z,1.10
2023-05-09T07:52:54.620Z,1.40
2023-05-09T07:58:19.613Z,1.20
2023-05-09T08:03:46.661Z,1.20
2023-05-09T08:09:12.598Z,1.13
2023-05-09T08:14:37.612Z,1.15
2023-05-09T08:20:05.624Z,1.30
2023-05-09T08:25:30.605Z,1.30
2023-05-09T08:30:55.634Z,0.98
2023-05-09T08:36:23.733Z,1.20
2023-05-09T08:41:48.614Z,1.10
2023-05-09T08:47:17.672Z,1.13
2023-05-09T08:52:45.649Z,1.20
2023-05-09T08:58:10.807Z,1.20
2023-05-09T09:03:36.639Z,1.20
2023-05-09T09:09:05.042Z,1.10
2023-05-09T09:14:34.661Z,1.27
2023-05-09T09:20:00.653Z,1.40
2023-05-09T09:25:28.624Z,1.60
2023-05-09T09:30:59.657Z,1.73
2023-05-09T09:36:24.653Z,1.50
2023-05-09T09:41:53.663Z,1.50
2023-05-09T09:47:19.665Z,1.30
2023-05-09T09:52:44.656Z,1.20
2023-05-09T09:58:12.684Z,1.13
2023-05-09T10:03:38.008Z,1.20
2023-05-09T10:09:08.689Z,1.30
2023-05-09T10:14:37.126Z,1.40
2023-05-09T10:20:04.680Z,1.60
2023-05-09T10:25:31.718Z,1.25
2023-05-09T10:31:07.134Z,1.42
2023-05-09T10:36:34.703Z,1.20
2023-05-09T10:42:00.736Z,1.30
2023-05-09T10:47:29.775Z,1.08
2023-05-09T10:53:23.685Z,1.15
2023-05-09T10:58:49.928Z,0.95
2023-05-09T11:04:30.059Z,0.90
2023-05-09T11:09:54.701Z,0.77
2023-05-09T11:15:24.714Z,0.77
2023-05-09T11:20:57.714Z,0.80
2023-05-09T11:26:23.750Z,0.73
2023-05-09T11:32:14.727Z,0.90
2023-05-09T11:37:46.730Z,0.90
2023-05-09T11:43:11.747Z,0.73
2023-05-09T11:48:38.853Z,0.80
2023-05-09T11:54:06.775Z,0.70
2023-05-09T11:59:31.924Z,0.80
2023-05-09T12:04:56.727Z,0.70
2023-05-09T12:10:30.041Z,0.70
2023-05-09T12:15:55.956Z,0.73
2023-05-09T12:21:21.892Z,0.70
2023-05-09T12:26:49.758Z,0.75
2023-05-09T12:32:14.786Z,0.60
2023-05-09T12:37:42.187Z,0.80
2023-05-09T12:43:11.233Z,0.70
2023-05-09T12:48:36.810Z,0.60
2023-05-09T12:54:00.820Z,0.70
2023-05-09T12:59:30.801Z,0.60
2023-05-09T13:05:02.966Z,0.70
2023-05-09T13:10:29.775Z,0.55
2023-05-09T13:15:57.829Z,0.60
2023-05-09T13:21:24.272Z,0.60
2023-05-09T13:26:47.813Z,0.60
2023-05-09T13:32:15.801Z,0.70
2023-05-09T13:37:44.091Z,0.70
2023-05-09T13:43:08.854Z,0.60
2023-05-09T13:48:35.839Z,0.60
2023-05-09T13:54:00.842Z,0.50
2023-05-09T13:59:25.832Z,0.50
2023-05-09T14:04:54.956Z,0.52
2023-05-09T14:10:20.035Z,0.65
2023-05-09T14:15:46.017Z,0.60
2023-05-09T14:21:12.886Z,0.50
2023-05-09T14:26:42.851Z,0.55
2023-05-09T14:32:06.885Z,0.50
2023-05-09T14:37:35.919Z,0.40
2023-05-09T14:43:08.897Z,0.55
2023-05-09T14:48:33.851Z,0.35
2023-05-09T14:54:04.409Z,0.40
2023-05-09T14:59:29.858Z,0.60
2023-05-09T15:04:53.879Z,0.40
2023-05-09T15:10:22.907Z,1.20
2023-05-09T15:15:47.910Z,0.70
2023-05-09T15:21:19.896Z,0.60
2023-05-09T15:26:47.878Z,0.50
2023-05-09T15:32:11.891Z,0.60
2023-05-09T15:37:37.093Z,0.70
2023-05-09T15:43:08.016Z,0.60
2023-05-09T15:48:33.955Z,0.70
2023-05-09T15:53:58.029Z,0.50
2023-05-09T15:59:25.920Z,0.50
2023-05-09T16:04:50.939Z,0.57
2023-05-09T16:10:17.284Z,0.50
2023-05-09T16:15:43.969Z,0.50
2023-05-09T16:21:09.033Z,0.55
2023-05-09T16:26:32.960Z,0.50
2023-05-09T16:32:01.086Z,0.60
2023-05-09T16:37:26.960Z,0.47
2023-05-09T16:42:52.015Z,0.60
2023-05-09T16:48:19.080Z,0.60
2023-05-09T16:53:44.020Z,0.60
2023-05-09T16:59:07.970Z,0.50
2023-05-09T17:04:37.808Z,0.38
2023-05-09T17:10:02.993Z,0.50
2023-05-09T17:15:28.034Z,0.50
2023-05-09T17:21:01.998Z,0.50
2023-05-09T17:26:27.189Z,0.60
2023-05-09T17:31:51.208Z,0.65
2023-05-09T17:37:19.017Z,0.65
2023-05-09T17:42:44.028Z,0.70
2023-05-09T17:48:10.069Z,0.60
2023-05-09T17:53:37.028Z,0.57
2023-05-09T17:59:03.038Z,0.70
2023-05-09T18:04:27.989Z,0.70
2023-05-09T18:10:03.156Z,0.77
2023-05-09T18:15:28.028Z,0.80
2023-05-09T18:20:53.056Z,0.70
2023-05-09T18:26:21.034Z,0.70
2023-05-09T18:31:48.093Z,0.70
2023-05-09T18:37:14.096Z,0.93
2023-05-09T18:42:42.036Z,0.70
2023-05-09T18:48:07.151Z,0.70
2023-05-09T18:53:33.055Z,0.70
2023-05-09T18:59:02.067Z,0.70
2023-05-09T19:04:26.266Z,0.88
2023-05-09T19:09:52.070Z,0.70
2023-05-09T19:15:20.088Z,0.80
2023-05-09T19:20:45.084Z,0.77
2023-05-09T19:26:10.069Z,0.73
2023-05-09T19:31:38.094Z,0.90
2023-05-09T19:37:02.096Z,0.80
2023-05-09T19:42:28.114Z,1.00
2023-05-09T19:47:56.140Z,0.73
2023-05-09T19:53:22.101Z,0.88
2023-05-09T19:58:46.164Z,0.70
2023-05-09T20:04:14.208Z,0.73
2023-05-09T20:09:39.163Z,0.95
2023-05-09T20:15:04.220Z,0.98
2023-05-09T20:20:49.246Z,0.80
2023-05-09T20:26:14.102Z,0.80
2023-05-09T20:31:38.171Z,0.70
2023-05-09T20:37:07.503Z,1.00
2023-05-09T20:42:32.148Z,1.10
2023-05-09T20:47:57.214Z,1.10
2023-05-09T20:53:24.137Z,1.00
2023-05-09T20:58:49.147Z,1.00
2023-05-09T21:04:15.202Z,1.10
2023-05-09T21:09:43.162Z,1.10
2023-05-09T21:15:08.329Z,0.90
2023-05-09T21:20:33.153Z,1.00
2023-05-09T21:26:00.188Z,1.10
2023-05-09T21:31:25.318Z,1.08
2023-05-09T21:36:49.169Z,0.90
2023-05-09T21:42:17.148Z,1.10
2023-05-09T21:47:41.257Z,1.00
2023-05-09T21:53:07.215Z,1.00
2023-05-09T21:58:35.168Z,1.20
2023-05-09T22:04:01.207Z,0.93
2023-05-09T22:09:26.189Z,0.98
2023-05-09T22:14:56.733Z,0.90
2023-05-09T22:20:28.177Z,1.03
2023-05-09T22:25:48.212Z,0.90
2023-05-09T22:31:17.272Z,0.93
2023-05-09T22:36:42.200Z,0.80
2023-05-09T22:42:09.411Z,0.90
2023-05-09T22:47:37.066Z,1.00
2023-05-09T22:53:02.191Z,0.90
2023-05-09T22:58:28.242Z,0.95
2023-05-09T23:03:56.192Z,1.00
2023-05-09T23:09:22.211Z,0.93
2023-05-09T23:14:48.032Z,1.00
2023-05-09T23:20:16.390Z,0.73
2023-05-09T23:25:42.988Z,0.85
2023-05-09T23:31:07.827Z,0.90
2023-05-09T23:36:35.897Z,0.90
2023-05-09T23:42:01.224Z,0.88
2023-05-09T23:47:26.473Z,0.90
2023-05-09T23:52:56.224Z,1.00
2023-05-09T23:58:22.256Z,0.90
